Jarvisburg, North Carolina
Current Conditions -  °F | °C
As of 12:55 PM on Friday 21 Nov 2014 (Local Time) from KONX Reporting Station
Clear Clear  
Wind Chill:   Ceiling: Unl
Heat Index:   Visibility: 10mi
Dew Point: -12°   Wind: 12mph
Humidity: 26%   Direction: 330°NNW
Pressure: 30.41"   Gusts: 20mph
Location:  36.2°N, 75.87°W
Report Text: KONX 211755Z AUTO 33010G17KT 10SM CLR 06/M12 A3041 RMK AO2 6//// T00641118
Loading
Personal Weather Stations






























Interactive Weather Map New forecast layout! Learn more

10-Day Weather Forecast

Advertisements
Track Severe Weather on mobile